sensor_id;sensor_type;location;lat;lon;timestamp;P1;durP1;ratioP1;P2;durP2;ratioP2
12433;SDS011;6281;49.038;8.372;2023-01-09T00:00:54;4.47;;;3.63;;
12433;SDS011;6281;49.038;8.372;2023-01-09T00:03:21;4.80;;;3.57;;
12433;SDS011;6281;49.038;8.372;2023-01-09T00:05:48;3.53;;;2.60;;
12433;SDS011;6281;49.038;8.372;2023-01-09T00:08:15;2.60;;;2.33;;
12433;SDS011;6281;49.038;8.372;2023-01-09T00:10:42;3.10;;;2.00;;
12433;SDS011;6281;49.038;8.372;2023-01-09T00:13:09;2.20;;;2.00;;
12433;SDS011;6281;49.038;8.372;2023-01-09T00:15:37;2.20;;;1.60;;
12433;SDS011;6281;49.038;8.372;2023-01-09T00:18:05;1.77;;;1.40;;
12433;SDS011;6281;49.038;8.372;2023-01-09T00:20:32;1.60;;;1.37;;
12433;SDS011;6281;49.038;8.372;2023-01-09T00:23:00;2.33;;;0.90;;
12433;SDS011;6281;49.038;8.372;2023-01-09T00:25:27;1.17;;;0.80;;
12433;SDS011;6281;49.038;8.372;2023-01-09T00:27:54;1.90;;;0.60;;
12433;SDS011;6281;49.038;8.372;2023-01-09T00:30:21;1.00;;;0.67;;
12433;SDS011;6281;49.038;8.372;2023-01-09T00:32:48;0.70;;;0.60;;
12433;SDS011;6281;49.038;8.372;2023-01-09T00:35:17;0.47;;;0.37;;
12433;SDS011;6281;49.038;8.372;2023-01-09T00:37:44;0.60;;;0.50;;
12433;SDS011;6281;49.038;8.372;2023-01-09T00:40:11;0.67;;;0.50;;
12433;SDS011;6281;49.038;8.372;2023-01-09T00:42:40;1.23;;;0.40;;
12433;SDS011;6281;49.038;8.372;2023-01-09T00:45:10;0.40;;;0.30;;
12433;SDS011;6281;49.038;8.372;2023-01-09T00:47:41;0.50;;;0.50;;
12433;SDS011;6281;49.038;8.372;2023-01-09T00:50:12;0.80;;;0.60;;
12433;SDS011;6281;49.038;8.372;2023-01-09T00:52:45;0.90;;;0.53;;
12433;SDS011;6281;49.038;8.372;2023-01-09T00:55:13;0.90;;;0.40;;
12433;SDS011;6281;49.038;8.372;2023-01-09T00:57:40;2.43;;;0.50;;
12433;SDS011;6281;49.038;8.372;2023-01-09T01:00:08;0.50;;;0.50;;
12433;SDS011;6281;49.038;8.372;2023-01-09T01:02:36;0.30;;;0.30;;
12433;SDS011;6281;49.038;8.372;2023-01-09T01:05:03;1.40;;;0.43;;
12433;SDS011;6281;49.038;8.372;2023-01-09T01:07:50;0.70;;;0.60;;
12433;SDS011;6281;49.038;8.372;2023-01-09T01:10:17;0.80;;;0.57;;
12433;SDS011;6281;49.038;8.372;2023-01-09T01:12:48;0.50;;;0.50;;
12433;SDS011;6281;49.038;8.372;2023-01-09T01:15:16;0.40;;;0.20;;
12433;SDS011;6281;49.038;8.372;2023-01-09T01:17:43;0.30;;;0.20;;
12433;SDS011;6281;49.038;8.372;2023-01-09T01:20:12;1.10;;;0.20;;
12433;SDS011;6281;49.038;8.372;2023-01-09T01:22:40;0.30;;;0.30;;
12433;SDS011;6281;49.038;8.372;2023-01-09T01:25:09;0.40;;;0.30;;
12433;SDS011;6281;49.038;8.372;2023-01-09T01:27:37;0.47;;;0.30;;
12433;SDS011;6281;49.038;8.372;2023-01-09T01:30:05;0.30;;;0.30;;
12433;SDS011;6281;49.038;8.372;2023-01-09T01:32:34;0.30;;;0.30;;
12433;SDS011;6281;49.038;8.372;2023-01-09T01:35:01;1.40;;;0.33;;
12433;SDS011;6281;49.038;8.372;2023-01-09T01:37:29;0.40;;;0.33;;
12433;SDS011;6281;49.038;8.372;2023-01-09T01:39:56;0.90;;;0.40;;
12433;SDS011;6281;49.038;8.372;2023-01-09T01:42:24;0.60;;;0.27;;
12433;SDS011;6281;49.038;8.372;2023-01-09T01:44:56;0.40;;;0.40;;
12433;SDS011;6281;49.038;8.372;2023-01-09T01:47:36;0.57;;;0.37;;
12433;SDS011;6281;49.038;8.372;2023-01-09T01:50:09;1.03;;;0.50;;
12433;SDS011;6281;49.038;8.372;2023-01-09T01:52:41;0.47;;;0.43;;
12433;SDS011;6281;49.038;8.372;2023-01-09T01:55:13;0.83;;;0.30;;
12433;SDS011;6281;49.038;8.372;2023-01-09T01:57:42;0.37;;;0.37;;
12433;SDS011;6281;49.038;8.372;2023-01-09T02:00:13;1.30;;;0.30;;
12433;SDS011;6281;49.038;8.372;2023-01-09T02:02:40;0.63;;;0.40;;
12433;SDS011;6281;49.038;8.372;2023-01-09T02:05:09;0.50;;;0.40;;
12433;SDS011;6281;49.038;8.372;2023-01-09T02:07:37;0.30;;;0.30;;
12433;SDS011;6281;49.038;8.372;2023-01-09T02:10:04;0.50;;;0.50;;
12433;SDS011;6281;49.038;8.372;2023-01-09T02:12:31;0.60;;;0.50;;
12433;SDS011;6281;49.038;8.372;2023-01-09T02:15:00;0.90;;;0.50;;
12433;SDS011;6281;49.038;8.372;2023-01-09T02:17:41;1.00;;;0.67;;
12433;SDS011;6281;49.038;8.372;2023-01-09T02:20:40;0.50;;;0.40;;
12433;SDS011;6281;49.038;8.372;2023-01-09T02:29:41;0.50;;;0.50;;
12433;SDS011;6281;49.038;8.372;2023-01-09T02:32:37;0.60;;;0.60;;
12433;SDS011;6281;49.038;8.372;2023-01-09T02:35:18;2.37;;;0.60;;
12433;SDS011;6281;49.038;8.372;2023-01-09T02:37:56;1.03;;;0.70;;
12433;SDS011;6281;49.038;8.372;2023-01-09T02:40:30;1.33;;;0.77;;
12433;SDS011;6281;49.038;8.372;2023-01-09T02:43:01;2.40;;;0.77;;
12433;SDS011;6281;49.038;8.372;2023-01-09T02:45:30;1.23;;;0.70;;
12433;SDS011;6281;49.038;8.372;2023-01-09T02:47:58;0.93;;;0.83;;
12433;SDS011;6281;49.038;8.372;2023-01-09T02:50:26;0.90;;;0.67;;
12433;SDS011;6281;49.038;8.372;2023-01-09T02:56:07;1.40;;;0.47;;
12433;SDS011;6281;49.038;8.372;2023-01-09T02:58:50;0.93;;;0.60;;
12433;SDS011;6281;49.038;8.372;2023-01-09T03:01:31;1.00;;;0.60;;
12433;SDS011;6281;49.038;8.372;2023-01-09T03:04:12;1.00;;;0.30;;
12433;SDS011;6281;49.038;8.372;2023-01-09T03:06:46;2.70;;;0.33;;
12433;SDS011;6281;49.038;8.372;2023-01-09T03:09:21;0.63;;;0.37;;
12433;SDS011;6281;49.038;8.372;2023-01-09T03:11:51;0.50;;;0.30;;
12433;SDS011;6281;49.038;8.372;2023-01-09T03:14:24;1.13;;;0.20;;
12433;SDS011;6281;49.038;8.372;2023-01-09T03:16:51;0.90;;;0.30;;
12433;SDS011;6281;49.038;8.372;2023-01-09T03:19:24;0.50;;;0.10;;
12433;SDS011;6281;49.038;8.372;2023-01-09T03:21:55;0.30;;;0.13;;
12433;SDS011;6281;49.038;8.372;2023-01-09T03:24:22;0.47;;;0.20;;
12433;SDS011;6281;49.038;8.372;2023-01-09T03:26:49;1.33;;;0.13;;
12433;SDS011;6281;49.038;8.372;2023-01-09T03:29:18;0.30;;;0.10;;
12433;SDS011;6281;49.038;8.372;2023-01-09T03:31:45;0.20;;;0.20;;
12433;SDS011;6281;49.038;8.372;2023-01-09T03:34:12;0.60;;;0.10;;
12433;SDS011;6281;49.038;8.372;2023-01-09T03:36:40;0.77;;;0.30;;
12433;SDS011;6281;49.038;8.372;2023-01-09T03:39:07;0.27;;;0.10;;
12433;SDS011;6281;49.038;8.372;2023-01-09T03:41:34;0.30;;;0.20;;
12433;SDS011;6281;49.038;8.372;2023-01-09T03:44:01;1.13;;;0.30;;
12433;SDS011;6281;49.038;8.372;2023-01-09T03:46:28;1.30;;;0.17;;
12433;SDS011;6281;49.038;8.372;2023-01-09T03:48:55;0.63;;;0.20;;
12433;SDS011;6281;49.038;8.372;2023-01-09T03:51:22;0.50;;;0.33;;
12433;SDS011;6281;49.038;8.372;2023-01-09T03:53:50;0.30;;;0.17;;
12433;SDS011;6281;49.038;8.372;2023-01-09T03:56:17;0.40;;;0.30;;
12433;SDS011;6281;49.038;8.372;2023-01-09T03:58:44;0.20;;;0.20;;
12433;SDS011;6281;49.038;8.372;2023-01-09T04:01:11;0.40;;;0.20;;
12433;SDS011;6281;49.038;8.372;2023-01-09T04:03:38;0.70;;;0.13;;
12433;SDS011;6281;49.038;8.372;2023-01-09T04:06:05;0.73;;;0.30;;
12433;SDS011;6281;49.038;8.372;2023-01-09T04:08:32;0.23;;;0.13;;
12433;SDS011;6281;49.038;8.372;2023-01-09T04:11:00;0.30;;;0.20;;
12433;SDS011;6281;49.038;8.372;2023-01-09T04:13:27;0.60;;;0.30;;
12433;SDS011;6281;49.038;8.372;2023-01-09T04:15:54;0.23;;;0.17;;
12433;SDS011;6281;49.038;8.372;2023-01-09T04:18:21;2.13;;;0.33;;
12433;SDS011;6281;49.038;8.372;2023-01-09T04:20:48;0.50;;;0.37;;
12433;SDS011;6281;49.038;8.372;2023-01-09T04:23:15;0.30;;;0.20;;
12433;SDS011;6281;49.038;8.372;2023-01-09T04:25:42;0.50;;;0.20;;
12433;SDS011;6281;49.038;8.372;2023-01-09T04:28:10;0.20;;;0.20;;
12433;SDS011;6281;49.038;8.372;2023-01-09T04:30:37;0.50;;;0.23;;
12433;SDS011;6281;49.038;8.372;2023-01-09T04:33:04;0.20;;;0.20;;
12433;SDS011;6281;49.038;8.372;2023-01-09T04:35:31;0.53;;;0.40;;
12433;SDS011;6281;49.038;8.372;2023-01-09T04:37:58;0.30;;;0.27;;
12433;SDS011;6281;49.038;8.372;2023-01-09T04:40:25;0.70;;;0.30;;
12433;SDS011;6281;49.038;8.372;2023-01-09T04:42:53;0.73;;;0.43;;
12433;SDS011;6281;49.038;8.372;2023-01-09T04:45:21;1.03;;;0.30;;
12433;SDS011;6281;49.038;8.372;2023-01-09T04:47:48;1.50;;;0.40;;
12433;SDS011;6281;49.038;8.372;2023-01-09T04:50:15;0.90;;;0.37;;
12433;SDS011;6281;49.038;8.372;2023-01-09T04:52:42;1.23;;;0.53;;
12433;SDS011;6281;49.038;8.372;2023-01-09T04:55:09;0.30;;;0.30;;
12433;SDS011;6281;49.038;8.372;2023-01-09T04:57:36;2.70;;;0.50;;
12433;SDS011;6281;49.038;8.372;2023-01-09T05:00:03;1.40;;;0.60;;
12433;SDS011;6281;49.038;8.372;2023-01-09T05:02:35;0.40;;;0.33;;
12433;SDS011;6281;49.038;8.372;2023-01-09T05:05:03;1.50;;;0.50;;
12433;SDS011;6281;49.038;8.372;2023-01-09T05:07:30;0.90;;;0.40;;
12433;SDS011;6281;49.038;8.372;2023-01-09T05:09:57;0.47;;;0.30;;
12433;SDS011;6281;49.038;8.372;2023-01-09T05:12:24;0.30;;;0.30;;
12433;SDS011;6281;49.038;8.372;2023-01-09T05:14:51;0.73;;;0.47;;
12433;SDS011;6281;49.038;8.372;2023-01-09T05:17:18;1.43;;;0.70;;
12433;SDS011;6281;49.038;8.372;2023-01-09T05:19:46;1.07;;;0.60;;
12433;SDS011;6281;49.038;8.372;2023-01-09T05:22:13;1.17;;;0.47;;
12433;SDS011;6281;49.038;8.372;2023-01-09T05:24:40;0.67;;;0.43;;
12433;SDS011;6281;49.038;8.372;2023-01-09T05:27:07;1.23;;;0.60;;
12433;SDS011;6281;49.038;8.372;2023-01-09T05:29:34;0.57;;;0.50;;
12433;SDS011;6281;49.038;8.372;2023-01-09T05:32:00;1.93;;;0.30;;
12433;SDS011;6281;49.038;8.372;2023-01-09T05:34:27;0.47;;;0.37;;
12433;SDS011;6281;49.038;8.372;2023-01-09T05:36:55;0.77;;;0.33;;
12433;SDS011;6281;49.038;8.372;2023-01-09T05:39:22;1.20;;;0.50;;
12433;SDS011;6281;49.038;8.372;2023-01-09T05:41:49;2.83;;;0.20;;
12433;SDS011;6281;49.038;8.372;2023-01-09T05:44:16;0.87;;;0.27;;
12433;SDS011;6281;49.038;8.372;2023-01-09T05:46:43;0.30;;;0.20;;
12433;SDS011;6281;49.038;8.372;2023-01-09T05:49:10;1.30;;;0.40;;
12433;SDS011;6281;49.038;8.372;2023-01-09T05:51:37;1.80;;;0.27;;
12433;SDS011;6281;49.038;8.372;2023-01-09T05:54:05;1.53;;;0.60;;
12433;SDS011;6281;49.038;8.372;2023-01-09T05:56:32;0.83;;;0.40;;
12433;SDS011;6281;49.038;8.372;2023-01-09T05:58:59;0.30;;;0.20;;
12433;SDS011;6281;49.038;8.372;2023-01-09T06:01:26;0.87;;;0.50;;
12433;SDS011;6281;49.038;8.372;2023-01-09T06:03:53;0.20;;;0.20;;
12433;SDS011;6281;49.038;8.372;2023-01-09T06:06:20;1.03;;;0.40;;
12433;SDS011;6281;49.038;8.372;2023-01-09T06:08:48;0.87;;;0.20;;
12433;SDS011;6281;49.038;8.372;2023-01-09T06:11:16;1.80;;;0.40;;
12433;SDS011;6281;49.038;8.372;2023-01-09T06:13:43;0.63;;;0.30;;
12433;SDS011;6281;49.038;8.372;2023-01-09T06:16:10;2.77;;;0.40;;
12433;SDS011;6281;49.038;8.372;2023-01-09T06:18:37;0.73;;;0.33;;
12433;SDS011;6281;49.038;8.372;2023-01-09T06:21:04;0.20;;;0.20;;
12433;SDS011;6281;49.038;8.372;2023-01-09T06:23:31;1.00;;;0.40;;
12433;SDS011;6281;49.038;8.372;2023-01-09T06:25:58;1.50;;;0.40;;
12433;SDS011;6281;49.038;8.372;2023-01-09T06:28:26;1.03;;;0.60;;
12433;SDS011;6281;49.038;8.372;2023-01-09T06:30:53;1.43;;;0.40;;
12433;SDS011;6281;49.038;8.372;2023-01-09T06:33:19;0.50;;;0.40;;
12433;SDS011;6281;49.038;8.372;2023-01-09T06:35:46;1.30;;;0.50;;
12433;SDS011;6281;49.038;8.372;2023-01-09T06:38:13;0.43;;;0.23;;
12433;SDS011;6281;49.038;8.372;2023-01-09T06:40:40;0.20;;;0.20;;
12433;SDS011;6281;49.038;8.372;2023-01-09T06:43:06;0.77;;;0.30;;
12433;SDS011;6281;49.038;8.372;2023-01-09T06:45:34;2.00;;;0.37;;
12433;SDS011;6281;49.038;8.372;2023-01-09T06:48:01;0.80;;;0.40;;
12433;SDS011;6281;49.038;8.372;2023-01-09T06:50:28;1.97;;;0.40;;
12433;SDS011;6281;49.038;8.372;2023-01-09T06:52:55;1.83;;;0.30;;
12433;SDS011;6281;49.038;8.372;2023-01-09T06:55:22;0.47;;;0.33;;
12433;SDS011;6281;49.038;8.372;2023-01-09T06:57:50;2.77;;;0.50;;
12433;SDS011;6281;49.038;8.372;2023-01-09T07:00:17;2.43;;;0.50;;
12433;SDS011;6281;49.038;8.372;2023-01-09T07:02:46;2.10;;;0.40;;
12433;SDS011;6281;49.038;8.372;2023-01-09T07:05:13;2.47;;;0.33;;
12433;SDS011;6281;49.038;8.372;2023-01-09T07:07:40;2.80;;;0.50;;
12433;SDS011;6281;49.038;8.372;2023-01-09T07:10:07;5.97;;;0.83;;
12433;SDS011;6281;49.038;8.372;2023-01-09T07:12:36;1.60;;;0.53;;
12433;SDS011;6281;49.038;8.372;2023-01-09T07:15:03;3.10;;;0.97;;
12433;SDS011;6281;49.038;8.372;2023-01-09T07:17:30;6.47;;;0.93;;
12433;SDS011;6281;49.038;8.372;2023-01-09T07:19:59;1.27;;;0.53;;
12433;SDS011;6281;49.038;8.372;2023-01-09T07:22:26;1.03;;;0.40;;
12433;SDS011;6281;49.038;8.372;2023-01-09T07:24:53;1.50;;;0.70;;
12433;SDS011;6281;49.038;8.372;2023-01-09T07:27:20;3.97;;;0.93;;
12433;SDS011;6281;49.038;8.372;2023-01-09T07:29:47;1.37;;;0.43;;
12433;SDS011;6281;49.038;8.372;2023-01-09T07:32:15;1.57;;;0.40;;
12433;SDS011;6281;49.038;8.372;2023-01-09T07:34:42;1.00;;;0.50;;
12433;SDS011;6281;49.038;8.372;2023-01-09T07:37:10;1.37;;;0.50;;
12433;SDS011;6281;49.038;8.372;2023-01-09T07:39:37;3.30;;;0.70;;
12433;SDS011;6281;49.038;8.372;2023-01-09T07:42:04;0.60;;;0.27;;
12433;SDS011;6281;49.038;8.372;2023-01-09T07:44:31;2.00;;;0.57;;
12433;SDS011;6281;49.038;8.372;2023-01-09T07:46:58;2.57;;;0.53;;
12433;SDS011;6281;49.038;8.372;2023-01-09T07:49:25;5.63;;;0.70;;
12433;SDS011;6281;49.038;8.372;2023-01-09T07:51:52;1.70;;;0.67;;
12433;SDS011;6281;49.038;8.372;2023-01-09T07:54:21;0.93;;;0.37;;
12433;SDS011;6281;49.038;8.372;2023-01-09T07:56:47;1.27;;;0.70;;
12433;SDS011;6281;49.038;8.372;2023-01-09T07:59:14;1.70;;;0.80;;
12433;SDS011;6281;49.038;8.372;2023-01-09T08:01:41;2.67;;;0.57;;
12433;SDS011;6281;49.038;8.372;2023-01-09T08:04:08;2.97;;;0.87;;
12433;SDS011;6281;49.038;8.372;2023-01-09T08:06:35;2.63;;;0.60;;
12433;SDS011;6281;49.038;8.372;2023-01-09T08:09:02;1.07;;;0.30;;
12433;SDS011;6281;49.038;8.372;2023-01-09T08:11:30;2.23;;;0.50;;
12433;SDS011;6281;49.038;8.372;2023-01-09T08:13:57;1.70;;;0.50;;
12433;SDS011;6281;49.038;8.372;2023-01-09T08:16:24;1.23;;;0.40;;
12433;SDS011;6281;49.038;8.372;2023-01-09T08:18:51;1.17;;;0.63;;
12433;SDS011;6281;49.038;8.372;2023-01-09T08:21:18;1.83;;;0.73;;
12433;SDS011;6281;49.038;8.372;2023-01-09T08:23:45;0.97;;;0.40;;
12433;SDS011;6281;49.038;8.372;2023-01-09T08:26:12;0.93;;;0.30;;
12433;SDS011;6281;49.038;8.372;2023-01-09T08:28:40;3.97;;;0.70;;
12433;SDS011;6281;49.038;8.372;2023-01-09T08:31:07;3.33;;;0.70;;
12433;SDS011;6281;49.038;8.372;2023-01-09T08:33:34;3.50;;;0.77;;
12433;SDS011;6281;49.038;8.372;2023-01-09T08:36:01;4.87;;;0.67;;
12433;SDS011;6281;49.038;8.372;2023-01-09T08:38:28;2.50;;;0.90;;
12433;SDS011;6281;49.038;8.372;2023-01-09T08:40:55;1.13;;;0.60;;
12433;SDS011;6281;49.038;8.372;2023-01-09T08:43:22;2.20;;;0.63;;
12433;SDS011;6281;49.038;8.372;2023-01-09T08:46:09;1.70;;;0.40;;
12433;SDS011;6281;49.038;8.372;2023-01-09T08:48:59;2.13;;;0.70;;
12433;SDS011;6281;49.038;8.372;2023-01-09T08:51:26;2.97;;;0.47;;
12433;SDS011;6281;49.038;8.372;2023-01-09T08:53:53;1.60;;;0.60;;
12433;SDS011;6281;49.038;8.372;2023-01-09T08:56:20;2.97;;;0.70;;
12433;SDS011;6281;49.038;8.372;2023-01-09T08:58:47;4.30;;;0.87;;
12433;SDS011;6281;49.038;8.372;2023-01-09T09:01:15;2.87;;;0.53;;
12433;SDS011;6281;49.038;8.372;2023-01-09T09:03:42;1.40;;;0.60;;
12433;SDS011;6281;49.038;8.372;2023-01-09T09:06:09;3.13;;;0.50;;
12433;SDS011;6281;49.038;8.372;2023-01-09T09:08:36;1.53;;;0.37;;
12433;SDS011;6281;49.038;8.372;2023-01-09T09:11:03;2.00;;;0.57;;
12433;SDS011;6281;49.038;8.372;2023-01-09T09:13:30;3.07;;;0.60;;
12433;SDS011;6281;49.038;8.372;2023-01-09T09:15:57;1.30;;;0.50;;
12433;SDS011;6281;49.038;8.372;2023-01-09T09:18:26;0.97;;;0.40;;
12433;SDS011;6281;49.038;8.372;2023-01-09T09:20:52;0.90;;;0.30;;
12433;SDS011;6281;49.038;8.372;2023-01-09T09:23:19;3.30;;;0.53;;
12433;SDS011;6281;49.038;8.372;2023-01-09T09:25:47;1.57;;;0.53;;
12433;SDS011;6281;49.038;8.372;2023-01-09T09:28:14;1.43;;;0.43;;
12433;SDS011;6281;49.038;8.372;2023-01-09T09:30:41;4.20;;;0.70;;
12433;SDS011;6281;49.038;8.372;2023-01-09T09:33:08;3.13;;;0.70;;
12433;SDS011;6281;49.038;8.372;2023-01-09T09:35:36;2.30;;;0.77;;
12433;SDS011;6281;49.038;8.372;2023-01-09T09:38:03;1.17;;;0.53;;
12433;SDS011;6281;49.038;8.372;2023-01-09T09:40:37;2.10;;;0.60;;
12433;SDS011;6281;49.038;8.372;2023-01-09T09:46:36;2.13;;;0.47;;
12433;SDS011;6281;49.038;8.372;2023-01-09T09:49:11;1.93;;;0.50;;
12433;SDS011;6281;49.038;8.372;2023-01-09T09:51:50;0.53;;;0.50;;
12433;SDS011;6281;49.038;8.372;2023-01-09T09:54:33;1.97;;;0.50;;
12433;SDS011;6281;49.038;8.372;2023-01-09T09:57:08;2.30;;;0.50;;
12433;SDS011;6281;49.038;8.372;2023-01-09T09:59:39;5.37;;;0.70;;
12433;SDS011;6281;49.038;8.372;2023-01-09T10:02:13;2.27;;;0.57;;
12433;SDS011;6281;49.038;8.372;2023-01-09T10:04:49;1.07;;;0.60;;
12433;SDS011;6281;49.038;8.372;2023-01-09T10:07:23;0.67;;;0.30;;
12433;SDS011;6281;49.038;8.372;2023-01-09T10:09:54;2.93;;;0.47;;
12433;SDS011;6281;49.038;8.372;2023-01-09T10:12:26;2.00;;;0.40;;
12433;SDS011;6281;49.038;8.372;2023-01-09T10:14:55;1.20;;;0.57;;
12433;SDS011;6281;49.038;8.372;2023-01-09T10:17:33;2.10;;;0.80;;
12433;SDS011;6281;49.038;8.372;2023-01-09T10:20:41;1.87;;;0.77;;
12433;SDS011;6281;49.038;8.372;2023-01-09T10:23:26;1.40;;;0.70;;
12433;SDS011;6281;49.038;8.372;2023-01-09T10:26:06;2.00;;;0.60;;
12433;SDS011;6281;49.038;8.372;2023-01-09T10:28:52;1.10;;;0.50;;
12433;SDS011;6281;49.038;8.372;2023-01-09T10:31:30;2.20;;;0.87;;
12433;SDS011;6281;49.038;8.372;2023-01-09T10:34:05;2.30;;;0.77;;
12433;SDS011;6281;49.038;8.372;2023-01-09T10:36:52;1.23;;;0.60;;
12433;SDS011;6281;49.038;8.372;2023-01-09T10:39:30;1.27;;;0.67;;
12433;SDS011;6281;49.038;8.372;2023-01-09T10:42:03;4.17;;;1.13;;
12433;SDS011;6281;49.038;8.372;2023-01-09T10:44:37;1.23;;;0.70;;
12433;SDS011;6281;49.038;8.372;2023-01-09T10:47:14;1.60;;;0.70;;
12433;SDS011;6281;49.038;8.372;2023-01-09T10:49:42;2.70;;;0.80;;
12433;SDS011;6281;49.038;8.372;2023-01-09T10:52:12;3.83;;;0.87;;
12433;SDS011;6281;49.038;8.372;2023-01-09T10:54:45;2.67;;;0.60;;
12433;SDS011;6281;49.038;8.372;2023-01-09T10:57:21;1.33;;;0.37;;
12433;SDS011;6281;49.038;8.372;2023-01-09T10:59:59;1.70;;;0.60;;
12433;SDS011;6281;49.038;8.372;2023-01-09T11:02:26;3.53;;;0.70;;
12433;SDS011;6281;49.038;8.372;2023-01-09T11:04:56;2.67;;;0.87;;
12433;SDS011;6281;49.038;8.372;2023-01-09T11:07:24;3.20;;;0.60;;
12433;SDS011;6281;49.038;8.372;2023-01-09T11:09:55;4.63;;;0.93;;
12433;SDS011;6281;49.038;8.372;2023-01-09T11:12:24;3.23;;;0.77;;
12433;SDS011;6281;49.038;8.372;2023-01-09T11:14:52;4.57;;;1.10;;
12433;SDS011;6281;49.038;8.372;2023-01-09T11:17:20;1.40;;;0.43;;
12433;SDS011;6281;49.038;8.372;2023-01-09T11:19:59;4.37;;;0.93;;
12433;SDS011;6281;49.038;8.372;2023-01-09T11:22:28;2.03;;;0.33;;
12433;SDS011;6281;49.038;8.372;2023-01-09T11:25:11;3.50;;;0.90;;
12433;SDS011;6281;49.038;8.372;2023-01-09T11:27:39;4.73;;;0.77;;
12433;SDS011;6281;49.038;8.372;2023-01-09T11:30:12;4.33;;;0.60;;
12433;SDS011;6281;49.038;8.372;2023-01-09T11:32:46;3.03;;;0.40;;
12433;SDS011;6281;49.038;8.372;2023-01-09T11:35:18;4.60;;;1.13;;
12433;SDS011;6281;49.038;8.372;2023-01-09T11:37:48;2.60;;;0.50;;
12433;SDS011;6281;49.038;8.372;2023-01-09T11:40:25;1.47;;;0.47;;
12433;SDS011;6281;49.038;8.372;2023-01-09T11:43:08;2.37;;;0.70;;
12433;SDS011;6281;49.038;8.372;2023-01-09T11:45:43;1.13;;;0.50;;
12433;SDS011;6281;49.038;8.372;2023-01-09T11:48:27;2.33;;;0.83;;
12433;SDS011;6281;49.038;8.372;2023-01-09T11:50:56;6.43;;;0.80;;
12433;SDS011;6281;49.038;8.372;2023-01-09T11:53:25;3.10;;;0.93;;
12433;SDS011;6281;49.038;8.372;2023-01-09T11:55:56;2.40;;;0.47;;
12433;SDS011;6281;49.038;8.372;2023-01-09T11:58:27;3.23;;;0.93;;
12433;SDS011;6281;49.038;8.372;2023-01-09T12:00:59;2.30;;;0.33;;
12433;SDS011;6281;49.038;8.372;2023-01-09T12:03:39;3.67;;;0.70;;
12433;SDS011;6281;49.038;8.372;2023-01-09T12:06:29;2.77;;;0.83;;
12433;SDS011;6281;49.038;8.372;2023-01-09T12:09:05;1.87;;;0.50;;
12433;SDS011;6281;49.038;8.372;2023-01-09T12:11:38;5.43;;;0.80;;
12433;SDS011;6281;49.038;8.372;2023-01-09T12:14:16;3.57;;;0.80;;
12433;SDS011;6281;49.038;8.372;2023-01-09T12:17:03;2.70;;;0.70;;
12433;SDS011;6281;49.038;8.372;2023-01-09T12:19:49;3.73;;;0.83;;
12433;SDS011;6281;49.038;8.372;2023-01-09T12:22:43;3.67;;;0.70;;
12433;SDS011;6281;49.038;8.372;2023-01-09T12:25:18;3.20;;;0.67;;
12433;SDS011;6281;49.038;8.372;2023-01-09T12:28:13;2.43;;;0.90;;
12433;SDS011;6281;49.038;8.372;2023-01-09T12:30:57;5.00;;;0.97;;
12433;SDS011;6281;49.038;8.372;2023-01-09T12:33:37;2.73;;;0.83;;
12433;SDS011;6281;49.038;8.372;2023-01-09T12:36:12;3.10;;;0.70;;
12433;SDS011;6281;49.038;8.372;2023-01-09T12:38:46;3.03;;;0.80;;
12433;SDS011;6281;49.038;8.372;2023-01-09T12:47:09;4.00;;;0.93;;
12433;SDS011;6281;49.038;8.372;2023-01-09T12:49:52;1.57;;;0.53;;
12433;SDS011;6281;49.038;8.372;2023-01-09T12:52:30;2.40;;;0.60;;
12433;SDS011;6281;49.038;8.372;2023-01-09T12:55:00;4.47;;;1.17;;
12433;SDS011;6281;49.038;8.372;2023-01-09T12:57:31;5.30;;;0.90;;
12433;SDS011;6281;49.038;8.372;2023-01-09T13:00:05;3.93;;;1.23;;
12433;SDS011;6281;49.038;8.372;2023-01-09T13:02:40;1.57;;;0.73;;
12433;SDS011;6281;49.038;8.372;2023-01-09T13:05:12;3.40;;;1.00;;
12433;SDS011;6281;49.038;8.372;2023-01-09T13:07:43;1.60;;;0.50;;
12433;SDS011;6281;49.038;8.372;2023-01-09T13:10:15;3.07;;;0.80;;
12433;SDS011;6281;49.038;8.372;2023-01-09T13:12:46;1.63;;;0.53;;
12433;SDS011;6281;49.038;8.372;2023-01-09T13:15:21;1.43;;;0.60;;
12433;SDS011;6281;49.038;8.372;2023-01-09T13:17:53;3.37;;;0.47;;
12433;SDS011;6281;49.038;8.372;2023-01-09T13:20:38;2.23;;;0.90;;
12433;SDS011;6281;49.038;8.372;2023-01-09T13:23:11;2.77;;;0.80;;
12433;SDS011;6281;49.038;8.372;2023-01-09T13:25:44;2.57;;;1.03;;
12433;SDS011;6281;49.038;8.372;2023-01-09T13:28:16;2.53;;;0.77;;
12433;SDS011;6281;49.038;8.372;2023-01-09T13:30:53;1.73;;;0.80;;
12433;SDS011;6281;49.038;8.372;2023-01-09T13:33:32;3.60;;;0.80;;
12433;SDS011;6281;49.038;8.372;2023-01-09T13:36:02;4.13;;;0.90;;
12433;SDS011;6281;49.038;8.372;2023-01-09T13:38:30;1.93;;;0.80;;
12433;SDS011;6281;49.038;8.372;2023-01-09T13:41:02;1.43;;;0.80;;
12433;SDS011;6281;49.038;8.372;2023-01-09T13:43:53;1.93;;;0.70;;
12433;SDS011;6281;49.038;8.372;2023-01-09T13:46:23;2.53;;;1.00;;
12433;SDS011;6281;49.038;8.372;2023-01-09T13:49:00;1.43;;;0.60;;
12433;SDS011;6281;49.038;8.372;2023-01-09T13:51:35;1.63;;;0.50;;
12433;SDS011;6281;49.038;8.372;2023-01-09T13:57:28;3.27;;;1.17;;
12433;SDS011;6281;49.038;8.372;2023-01-09T14:03:12;3.70;;;1.10;;
12433;SDS011;6281;49.038;8.372;2023-01-09T14:08:46;1.43;;;0.80;;
12433;SDS011;6281;49.038;8.372;2023-01-09T14:11:18;2.83;;;0.50;;
12433;SDS011;6281;49.038;8.372;2023-01-09T14:13:51;6.30;;;2.13;;
12433;SDS011;6281;49.038;8.372;2023-01-09T14:16:25;7.10;;;2.17;;
12433;SDS011;6281;49.038;8.372;2023-01-09T14:18:56;11.83;;;3.73;;
12433;SDS011;6281;49.038;8.372;2023-01-09T14:24:22;4.27;;;1.03;;
12433;SDS011;6281;49.038;8.372;2023-01-09T14:26:51;4.33;;;1.30;;
12433;SDS011;6281;49.038;8.372;2023-01-09T14:29:39;6.17;;;1.60;;
12433;SDS011;6281;49.038;8.372;2023-01-09T14:35:16;2.47;;;0.97;;
12433;SDS011;6281;49.038;8.372;2023-01-09T14:38:01;4.23;;;1.07;;
12433;SDS011;6281;49.038;8.372;2023-01-09T14:40:43;2.43;;;0.67;;
12433;SDS011;6281;49.038;8.372;2023-01-09T14:43:15;3.37;;;0.90;;
12433;SDS011;6281;49.038;8.372;2023-01-09T14:45:48;4.63;;;1.80;;
12433;SDS011;6281;49.038;8.372;2023-01-09T14:48:16;0.80;;;0.30;;
12433;SDS011;6281;49.038;8.372;2023-01-09T14:50:46;2.07;;;0.70;;
12433;SDS011;6281;49.038;8.372;2023-01-09T14:53:19;1.90;;;0.67;;
12433;SDS011;6281;49.038;8.372;2023-01-09T14:55:50;2.30;;;0.70;;
12433;SDS011;6281;49.038;8.372;2023-01-09T14:58:19;0.93;;;0.50;;
12433;SDS011;6281;49.038;8.372;2023-01-09T15:00:48;4.27;;;1.87;;
12433;SDS011;6281;49.038;8.372;2023-01-09T15:03:23;3.17;;;0.70;;
12433;SDS011;6281;49.038;8.372;2023-01-09T15:05:55;5.37;;;1.20;;
12433;SDS011;6281;49.038;8.372;2023-01-09T15:08:22;2.67;;;0.80;;
12433;SDS011;6281;49.038;8.372;2023-01-09T15:10:53;7.47;;;3.30;;
12433;SDS011;6281;49.038;8.372;2023-01-09T15:13:26;7.37;;;3.20;;
12433;SDS011;6281;49.038;8.372;2023-01-09T15:15:55;7.13;;;1.50;;
12433;SDS011;6281;49.038;8.372;2023-01-09T15:18:24;6.43;;;2.70;;
12433;SDS011;6281;49.038;8.372;2023-01-09T15:20:56;6.13;;;1.87;;
12433;SDS011;6281;49.038;8.372;2023-01-09T15:23:26;8.57;;;3.43;;
12433;SDS011;6281;49.038;8.372;2023-01-09T15:25:55;7.30;;;3.50;;
12433;SDS011;6281;49.038;8.372;2023-01-09T15:28:24;2.70;;;1.00;;
12433;SDS011;6281;49.038;8.372;2023-01-09T15:30:53;4.83;;;1.93;;
12433;SDS011;6281;49.038;8.372;2023-01-09T15:33:23;4.70;;;1.07;;
12433;SDS011;6281;49.038;8.372;2023-01-09T15:35:50;2.07;;;1.40;;
12433;SDS011;6281;49.038;8.372;2023-01-09T15:38:25;2.20;;;1.20;;
12433;SDS011;6281;49.038;8.372;2023-01-09T15:40:55;1.90;;;1.00;;
12433;SDS011;6281;49.038;8.372;2023-01-09T15:43:23;6.57;;;2.10;;
12433;SDS011;6281;49.038;8.372;2023-01-09T15:45:52;3.33;;;1.50;;
12433;SDS011;6281;49.038;8.372;2023-01-09T15:48:21;2.67;;;0.97;;
12433;SDS011;6281;49.038;8.372;2023-01-09T15:50:50;3.57;;;1.30;;
12433;SDS011;6281;49.038;8.372;2023-01-09T15:53:21;1.63;;;0.70;;
12433;SDS011;6281;49.038;8.372;2023-01-09T15:58:44;2.27;;;0.90;;